sensor_id;sensor_type;location;lat;lon;timestamp;pressure;altitude;pressure_sealevel;temperature;humidity
75891;BME280;64571;47.512;19.054;2022-12-18T00:02:49;101852.47;;;-0.87;75.50
75891;BME280;64571;47.512;19.054;2022-12-18T00:05:52;101850.59;;;-0.87;75.38
75891;BME280;64571;47.512;19.054;2022-12-18T00:08:56;101860.94;;;-0.82;75.35
75891;BME280;64571;47.512;19.054;2022-12-18T00:11:59;101879.47;;;-0.78;75.33
75891;BME280;64571;47.512;19.054;2022-12-18T00:15:16;101879.81;;;-0.95;75.43
75891;BME280;64571;47.512;19.054;2022-12-18T00:18:19;101898.09;;;-0.96;75.84
75891;BME280;64571;47.512;19.054;2022-12-18T00:21:22;101896.31;;;-1.04;75.53
75891;BME280;64571;47.512;19.054;2022-12-18T00:24:24;101906.59;;;-1.14;75.73
75891;BME280;64571;47.512;19.054;2022-12-18T00:27:27;101902.72;;;-1.19;75.84
75891;BME280;64571;47.512;19.054;2022-12-18T00:30:29;101925.53;;;-1.12;76.11
75891;BME280;64571;47.512;19.054;2022-12-18T00:33:32;101911.78;;;-1.04;76.21
75891;BME280;64571;47.512;19.054;2022-12-18T00:36:35;101919.62;;;-1.01;75.95
75891;BME280;64571;47.512;19.054;2022-12-18T00:39:38;101917.87;;;-0.94;76.36
75891;BME280;64571;47.512;19.054;2022-12-18T00:42:40;101923.78;;;-0.90;76.39
75891;BME280;64571;47.512;19.054;2022-12-18T00:46:09;101937.34;;;-0.82;75.62
75891;BME280;64571;47.512;19.054;2022-12-18T00:49:11;101926.69;;;-0.92;75.32
75891;BME280;64571;47.512;19.054;2022-12-18T00:52:14;101941.47;;;-0.86;75.76
75891;BME280;64571;47.512;19.054;2022-12-18T00:55:17;101943.06;;;-0.92;75.11
75891;BME280;64571;47.512;19.054;2022-12-18T00:58:21;101933.75;;;-0.97;75.42
75891;BME280;64571;47.512;19.054;2022-12-18T01:01:24;101928.47;;;-0.99;75.19
75891;BME280;64571;47.512;19.054;2022-12-18T01:04:26;101955.66;;;-0.91;75.24
75891;BME280;64571;47.512;19.054;2022-12-18T01:07:29;101967.62;;;-0.92;75.33
75891;BME280;64571;47.512;19.054;2022-12-18T01:10:31;101965.75;;;-0.91;75.54
75891;BME280;64571;47.512;19.054;2022-12-18T01:13:34;101961.12;;;-0.91;75.47
75891;BME280;64571;47.512;19.054;2022-12-18T01:16:36;101965.63;;;-0.98;76.15
75891;BME280;64571;47.512;19.054;2022-12-18T01:19:39;101964.50;;;-1.04;75.87
75891;BME280;64571;47.512;19.054;2022-12-18T01:22:44;101960.03;;;-1.05;75.87
75891;BME280;64571;47.512;19.054;2022-12-18T01:25:47;101978.50;;;-1.07;75.52
75891;BME280;64571;47.512;19.054;2022-12-18T01:28:49;101984.78;;;-1.06;75.80
75891;BME280;64571;47.512;19.054;2022-12-18T01:31:54;101983.59;;;-1.04;76.05
75891;BME280;64571;47.512;19.054;2022-12-18T01:34:57;101971.75;;;-1.19;75.81
75891;BME280;64571;47.512;19.054;2022-12-18T01:38:01;101987.56;;;-1.14;76.16
75891;BME280;64571;47.512;19.054;2022-12-18T01:41:04;101985.87;;;-1.15;76.27
75891;BME280;64571;47.512;19.054;2022-12-18T01:47:49;101999.28;;;-1.29;76.75
75891;BME280;64571;47.512;19.054;2022-12-18T01:50:54;101997.03;;;-1.25;76.60
75891;BME280;64571;47.512;19.054;2022-12-18T01:53:56;101992.28;;;-1.31;76.65
75891;BME280;64571;47.512;19.054;2022-12-18T01:56:59;101992.47;;;-1.33;76.61
75891;BME280;64571;47.512;19.054;2022-12-18T02:00:07;102008.00;;;-1.33;76.89
75891;BME280;64571;47.512;19.054;2022-12-18T02:03:14;102007.31;;;-1.35;76.98
75891;BME280;64571;47.512;19.054;2022-12-18T02:06:40;102006.91;;;-1.24;76.95
75891;BME280;64571;47.512;19.054;2022-12-18T02:10:12;101999.06;;;-1.50;76.83
75891;BME280;64571;47.512;19.054;2022-12-18T02:13:36;102011.34;;;-1.54;77.14
75891;BME280;64571;47.512;19.054;2022-12-18T02:17:03;102016.97;;;-1.56;77.50
75891;BME280;64571;47.512;19.054;2022-12-18T02:20:17;102030.41;;;-1.54;77.75
75891;BME280;64571;47.512;19.054;2022-12-18T02:26:36;102035.53;;;-1.51;77.62
75891;BME280;64571;47.512;19.054;2022-12-18T02:29:48;102038.06;;;-1.49;77.97
75891;BME280;64571;47.512;19.054;2022-12-18T02:33:00;102041.25;;;-1.38;77.89
75891;BME280;64571;47.512;19.054;2022-12-18T02:36:08;102028.16;;;-1.42;77.73
75891;BME280;64571;47.512;19.054;2022-12-18T02:39:13;102027.81;;;-1.39;77.40
75891;BME280;64571;47.512;19.054;2022-12-18T02:42:18;102051.09;;;-1.29;77.42
75891;BME280;64571;47.512;19.054;2022-12-18T02:45:22;102053.50;;;-1.34;77.35
75891;BME280;64571;47.512;19.054;2022-12-18T02:48:33;102049.44;;;-1.38;77.78
75891;BME280;64571;47.512;19.054;2022-12-18T02:52:04;102060.31;;;-1.30;77.88
75891;BME280;64571;47.512;19.054;2022-12-18T03:08:21;102085.41;;;-1.42;77.67
75891;BME280;64571;47.512;19.054;2022-12-18T03:11:26;102084.72;;;-1.44;78.10
75891;BME280;64571;47.512;19.054;2022-12-18T03:14:53;102073.53;;;-1.58;78.18
75891;BME280;64571;47.512;19.054;2022-12-18T03:18:06;102084.78;;;-1.52;78.36
75891;BME280;64571;47.512;19.054;2022-12-18T03:21:12;102096.84;;;-1.47;78.50
75891;BME280;64571;47.512;19.054;2022-12-18T03:24:17;102093.50;;;-1.57;78.50
75891;BME280;64571;47.512;19.054;2022-12-18T03:27:23;102095.53;;;-1.59;78.53
75891;BME280;64571;47.512;19.054;2022-12-18T03:30:30;102092.47;;;-1.64;78.52
75891;BME280;64571;47.512;19.054;2022-12-18T03:33:39;102102.34;;;-1.63;78.69
75891;BME280;64571;47.512;19.054;2022-12-18T03:36:44;102109.88;;;-1.65;78.86
75891;BME280;64571;47.512;19.054;2022-12-18T03:39:47;102118.37;;;-1.68;78.65
75891;BME280;64571;47.512;19.054;2022-12-18T03:42:56;102104.94;;;-1.70;78.70
75891;BME280;64571;47.512;19.054;2022-12-18T03:46:11;102126.19;;;-1.57;78.37
75891;BME280;64571;47.512;19.054;2022-12-18T03:49:24;102126.84;;;-1.55;78.67
75891;BME280;64571;47.512;19.054;2022-12-18T03:52:40;102133.66;;;-1.51;78.46
75891;BME280;64571;47.512;19.054;2022-12-18T03:55:45;102132.31;;;-1.55;78.48
75891;BME280;64571;47.512;19.054;2022-12-18T03:58:50;102130.75;;;-1.58;78.64
75891;BME280;64571;47.512;19.054;2022-12-18T04:01:56;102128.91;;;-1.57;78.77
75891;BME280;64571;47.512;19.054;2022-12-18T04:05:04;102129.41;;;-1.54;79.13
75891;BME280;64571;47.512;19.054;2022-12-18T04:08:08;102134.31;;;-1.49;79.40
75891;BME280;64571;47.512;19.054;2022-12-18T04:11:12;102142.50;;;-1.49;79.28
75891;BME280;64571;47.512;19.054;2022-12-18T04:14:14;102132.31;;;-1.55;79.39
75891;BME280;64571;47.512;19.054;2022-12-18T04:17:22;102137.41;;;-1.52;79.65
75891;BME280;64571;47.512;19.054;2022-12-18T04:20:24;102152.03;;;-1.45;79.52
75891;BME280;64571;47.512;19.054;2022-12-18T04:23:27;102152.72;;;-1.43;79.80
75891;BME280;64571;47.512;19.054;2022-12-18T04:26:30;102142.69;;;-1.50;79.79
75891;BME280;64571;47.512;19.054;2022-12-18T04:29:34;102159.37;;;-1.45;79.75
75891;BME280;64571;47.512;19.054;2022-12-18T04:32:36;102152.72;;;-1.43;79.68
75891;BME280;64571;47.512;19.054;2022-12-18T04:35:40;102140.81;;;-1.50;79.70
75891;BME280;64571;47.512;19.054;2022-12-18T04:38:43;102152.34;;;-1.40;79.99
75891;BME280;64571;47.512;19.054;2022-12-18T04:41:46;102166.50;;;-1.44;80.21
75891;BME280;64571;47.512;19.054;2022-12-18T04:44:48;102176.25;;;-1.50;79.77
75891;BME280;64571;47.512;19.054;2022-12-18T04:47:51;102166.72;;;-1.62;79.85
75891;BME280;64571;47.512;19.054;2022-12-18T04:50:53;102186.31;;;-1.59;79.66
75891;BME280;64571;47.512;19.054;2022-12-18T04:53:56;102175.09;;;-1.72;79.66
75891;BME280;64571;47.512;19.054;2022-12-18T04:56:58;102179.03;;;-1.74;80.31
75891;BME280;64571;47.512;19.054;2022-12-18T05:00:01;102199.81;;;-1.73;80.36
75891;BME280;64571;47.512;19.054;2022-12-18T05:03:03;102200.66;;;-1.81;80.54
75891;BME280;64571;47.512;19.054;2022-12-18T05:06:06;102184.16;;;-1.88;80.60
75891;BME280;64571;47.512;19.054;2022-12-18T05:09:09;102202.38;;;-1.80;80.59
75891;BME280;64571;47.512;19.054;2022-12-18T05:12:11;102189.94;;;-1.91;80.42
75891;BME280;64571;47.512;19.054;2022-12-18T05:15:14;102204.22;;;-1.81;80.43
75891;BME280;64571;47.512;19.054;2022-12-18T05:18:16;102216.16;;;-1.73;80.44
75891;BME280;64571;47.512;19.054;2022-12-18T05:21:19;102198.12;;;-1.74;80.12
75891;BME280;64571;47.512;19.054;2022-12-18T05:24:21;102203.19;;;-1.71;79.96
75891;BME280;64571;47.512;19.054;2022-12-18T05:27:23;102213.44;;;-1.65;79.86
75891;BME280;64571;47.512;19.054;2022-12-18T05:30:26;102209.00;;;-1.74;80.04
75891;BME280;64571;47.512;19.054;2022-12-18T05:33:31;102224.66;;;-1.68;79.97
75891;BME280;64571;47.512;19.054;2022-12-18T05:36:34;102227.72;;;-1.63;79.41
75891;BME280;64571;47.512;19.054;2022-12-18T05:39:37;102226.53;;;-1.61;79.08
75891;BME280;64571;47.512;19.054;2022-12-18T05:42:40;102221.75;;;-1.67;78.93
75891;BME280;64571;47.512;19.054;2022-12-18T05:45:42;102237.25;;;-1.67;78.83
75891;BME280;64571;47.512;19.054;2022-12-18T05:48:45;102223.81;;;-1.85;79.15
75891;BME280;64571;47.512;19.054;2022-12-18T05:51:47;102238.47;;;-1.78;79.13
75891;BME280;64571;47.512;19.054;2022-12-18T05:54:50;102250.56;;;-1.81;79.23
75891;BME280;64571;47.512;19.054;2022-12-18T05:57:52;102255.34;;;-1.74;79.13
75891;BME280;64571;47.512;19.054;2022-12-18T06:00:55;102256.87;;;-1.80;79.11
75891;BME280;64571;47.512;19.054;2022-12-18T06:03:57;102263.84;;;-1.77;79.05
75891;BME280;64571;47.512;19.054;2022-12-18T06:07:03;102257.53;;;-1.78;79.13
75891;BME280;64571;47.512;19.054;2022-12-18T06:10:06;102261.31;;;-1.79;78.89
75891;BME280;64571;47.512;19.054;2022-12-18T06:13:08;102267.94;;;-1.82;78.89
75891;BME280;64571;47.512;19.054;2022-12-18T06:16:11;102261.97;;;-1.85;79.17
75891;BME280;64571;47.512;19.054;2022-12-18T06:19:15;102268.94;;;-1.91;79.23
75891;BME280;64571;47.512;19.054;2022-12-18T06:22:18;102254.66;;;-2.01;79.27
75891;BME280;64571;47.512;19.054;2022-12-18T06:25:20;102279.69;;;-1.97;79.42
75891;BME280;64571;47.512;19.054;2022-12-18T06:28:23;102268.44;;;-2.11;79.66
75891;BME280;64571;47.512;19.054;2022-12-18T06:31:25;102280.69;;;-2.07;80.09
75891;BME280;64571;47.512;19.054;2022-12-18T06:34:32;102281.53;;;-2.14;80.11
75891;BME280;64571;47.512;19.054;2022-12-18T06:37:34;102300.06;;;-2.18;80.11
75891;BME280;64571;47.512;19.054;2022-12-18T06:40:37;102299.91;;;-2.24;80.39
75891;BME280;64571;47.512;19.054;2022-12-18T06:43:41;102293.72;;;-2.35;80.62
75891;BME280;64571;47.512;19.054;2022-12-18T06:46:44;102297.47;;;-2.36;80.68
75891;BME280;64571;47.512;19.054;2022-12-18T06:49:46;102313.84;;;-2.27;80.63
75891;BME280;64571;47.512;19.054;2022-12-18T06:52:49;102315.53;;;-2.26;80.46
75891;BME280;64571;47.512;19.054;2022-12-18T06:55:51;102304.81;;;-2.28;80.34
75891;BME280;64571;47.512;19.054;2022-12-18T06:58:54;102325.78;;;-2.12;80.15
75891;BME280;64571;47.512;19.054;2022-12-18T07:01:57;102320.66;;;-2.23;79.96
75891;BME280;64571;47.512;19.054;2022-12-18T07:05:01;102345.16;;;-2.23;79.94
75891;BME280;64571;47.512;19.054;2022-12-18T07:08:11;102342.09;;;-2.28;80.24
75891;BME280;64571;47.512;19.054;2022-12-18T07:11:14;102333.91;;;-2.28;80.02
75891;BME280;64571;47.512;19.054;2022-12-18T07:14:17;102339.03;;;-2.17;79.90
75891;BME280;64571;47.512;19.054;2022-12-18T07:17:19;102363.28;;;-1.98;79.62
75891;BME280;64571;47.512;19.054;2022-12-18T07:20:22;102361.87;;;-2.10;79.25
75891;BME280;64571;47.512;19.054;2022-12-18T07:23:24;102348.75;;;-2.15;78.84
75891;BME280;64571;47.512;19.054;2022-12-18T07:26:26;102372.75;;;-2.18;79.01
75891;BME280;64571;47.512;19.054;2022-12-18T07:29:29;102378.53;;;-2.13;79.02
75891;BME280;64571;47.512;19.054;2022-12-18T07:32:31;102384.50;;;-2.10;78.98
75891;BME280;64571;47.512;19.054;2022-12-18T07:35:34;102388.78;;;-2.07;78.78
75891;BME280;64571;47.512;19.054;2022-12-18T07:38:37;102393.88;;;-2.04;78.76
75891;BME280;64571;47.512;19.054;2022-12-18T07:41:39;102389.50;;;-1.97;78.25
75891;BME280;64571;47.512;19.054;2022-12-18T07:44:50;102402.28;;;-1.97;78.10
75891;BME280;64571;47.512;19.054;2022-12-18T07:47:52;102404.62;;;-1.94;78.22
75891;BME280;64571;47.512;19.054;2022-12-18T07:50:59;102401.78;;;-1.93;77.99
75891;BME280;64571;47.512;19.054;2022-12-18T07:54:02;102422.91;;;-1.79;78.04
75891;BME280;64571;47.512;19.054;2022-12-18T07:57:04;102428.19;;;-1.77;77.93
75891;BME280;64571;47.512;19.054;2022-12-18T08:00:26;102424.44;;;-1.76;77.90
75891;BME280;64571;47.512;19.054;2022-12-18T08:03:29;102430.13;;;-1.53;77.60
75891;BME280;64571;47.512;19.054;2022-12-18T08:06:32;102421.59;;;-1.58;77.87
75891;BME280;64571;47.512;19.054;2022-12-18T08:09:34;102421.78;;;-1.51;78.16
75891;BME280;64571;47.512;19.054;2022-12-18T08:12:37;102438.31;;;-1.45;78.00
75891;BME280;64571;47.512;19.054;2022-12-18T08:15:39;102445.84;;;-1.31;77.78
75891;BME280;64571;47.512;19.054;2022-12-18T08:18:41;102449.06;;;-1.27;77.37
75891;BME280;64571;47.512;19.054;2022-12-18T08:21:44;102447.88;;;-1.24;76.99
75891;BME280;64571;47.512;19.054;2022-12-18T08:24:46;102444.47;;;-1.18;76.48
75891;BME280;64571;47.512;19.054;2022-12-18T08:27:49;102440.37;;;-1.14;75.50
75891;BME280;64571;47.512;19.054;2022-12-18T08:30:52;102457.44;;;-0.88;75.27
75891;BME280;64571;47.512;19.054;2022-12-18T08:33:55;102460.53;;;-0.99;74.94
75891;BME280;64571;47.512;19.054;2022-12-18T08:36:57;102462.22;;;-0.90;74.62
75891;BME280;64571;47.512;19.054;2022-12-18T08:40:00;102466.12;;;-0.76;74.32
75891;BME280;64571;47.512;19.054;2022-12-18T08:43:02;102450.59;;;-0.75;73.89
75891;BME280;64571;47.512;19.054;2022-12-18T08:46:25;102465.25;;;-0.68;73.74
75891;BME280;64571;47.512;19.054;2022-12-18T08:49:28;102446.13;;;-0.60;73.58
75891;BME280;64571;47.512;19.054;2022-12-18T08:52:32;102458.38;;;-0.40;73.13
75891;BME280;64571;47.512;19.054;2022-12-18T08:55:34;102450.72;;;-0.44;72.86
75891;BME280;64571;47.512;19.054;2022-12-18T08:58:37;102469.56;;;-0.18;72.67
75891;BME280;64571;47.512;19.054;2022-12-18T09:01:39;102459.06;;;-0.38;72.38
75891;BME280;64571;47.512;19.054;2022-12-18T09:04:42;102474.22;;;-0.27;72.20
75891;BME280;64571;47.512;19.054;2022-12-18T09:07:47;102494.16;;;-0.18;72.26
75891;BME280;64571;47.512;19.054;2022-12-18T09:10:50;102485.59;;;-0.07;71.61
75891;BME280;64571;47.512;19.054;2022-12-18T09:13:53;102492.88;;;0.09;71.29
75891;BME280;64571;47.512;19.054;2022-12-18T09:16:56;102495.25;;;0.12;71.18
75891;BME280;64571;47.512;19.054;2022-12-18T09:19:58;102488.22;;;0.17;71.12
75891;BME280;64571;47.512;19.054;2022-12-18T09:23:01;102498.63;;;0.22;70.67
75891;BME280;64571;47.512;19.054;2022-12-18T09:26:03;102478.66;;;0.21;70.44
75891;BME280;64571;47.512;19.054;2022-12-18T09:29:06;102484.28;;;0.28;70.34
75891;BME280;64571;47.512;19.054;2022-12-18T09:32:11;102474.00;;;0.30;70.44
75891;BME280;64571;47.512;19.054;2022-12-18T09:35:21;102495.16;;;0.36;70.36
75891;BME280;64571;47.512;19.054;2022-12-18T09:38:24;102492.56;;;0.43;70.10
75891;BME280;64571;47.512;19.054;2022-12-18T09:41:43;102474.06;;;0.45;69.27
75891;BME280;64571;47.512;19.054;2022-12-18T09:44:50;102481.56;;;0.51;69.43
75891;BME280;64571;47.512;19.054;2022-12-18T09:47:55;102482.06;;;0.55;69.46
75891;BME280;64571;47.512;19.054;2022-12-18T09:51:06;102482.50;;;0.66;69.25
75891;BME280;64571;47.512;19.054;2022-12-18T09:54:33;102476.31;;;0.72;69.29
75891;BME280;64571;47.512;19.054;2022-12-18T09:57:47;102492.53;;;0.74;68.66
75891;BME280;64571;47.512;19.054;2022-12-18T10:00:52;102487.53;;;0.86;68.08
75891;BME280;64571;47.512;19.054;2022-12-18T10:03:55;102470.16;;;0.93;67.61
75891;BME280;64571;47.512;19.054;2022-12-18T10:07:17;102473.38;;;0.97;67.27
75891;BME280;64571;47.512;19.054;2022-12-18T10:10:39;102476.72;;;1.07;67.10
75891;BME280;64571;47.512;19.054;2022-12-18T10:13:52;102467.06;;;0.96;66.95
75891;BME280;64571;47.512;19.054;2022-12-18T10:20:32;102460.19;;;1.00;66.37
75891;BME280;64571;47.512;19.054;2022-12-18T10:23:53;102480.09;;;1.17;66.66
75891;BME280;64571;47.512;19.054;2022-12-18T10:27:12;102476.09;;;1.20;66.53
75891;BME280;64571;47.512;19.054;2022-12-18T10:30:18;102461.72;;;1.41;65.94
75891;BME280;64571;47.512;19.054;2022-12-18T10:33:23;102472.41;;;1.50;66.06
75891;BME280;64571;47.512;19.054;2022-12-18T10:36:26;102470.06;;;1.62;65.21
75891;BME280;64571;47.512;19.054;2022-12-18T10:39:28;102471.69;;;1.71;64.61
75891;BME280;64571;47.512;19.054;2022-12-18T10:42:31;102469.75;;;1.57;64.19
75891;BME280;64571;47.512;19.054;2022-12-18T10:45:33;102456.25;;;1.70;64.47
75891;BME280;64571;47.512;19.054;2022-12-18T10:51:49;102472.81;;;1.92;64.44
75891;BME280;64571;47.512;19.054;2022-12-18T10:54:58;102462.12;;;1.97;64.30
75891;BME280;64571;47.512;19.054;2022-12-18T10:58:26;102461.00;;;1.91;64.47
75891;BME280;64571;47.512;19.054;2022-12-18T11:01:51;102462.66;;;2.07;64.00
75891;BME280;64571;47.512;19.054;2022-12-18T11:04:54;102464.09;;;2.18;64.11
75891;BME280;64571;47.512;19.054;2022-12-18T11:07:58;102463.31;;;2.24;64.00
75891;BME280;64571;47.512;19.054;2022-12-18T11:11:01;102449.50;;;2.32;63.33
75891;BME280;64571;47.512;19.054;2022-12-18T11:14:06;102451.13;;;2.26;63.33
75891;BME280;64571;47.512;19.054;2022-12-18T11:17:32;102441.72;;;2.36;63.35
75891;BME280;64571;47.512;19.054;2022-12-18T11:20:38;102451.16;;;2.48;63.76
75891;BME280;64571;47.512;19.054;2022-12-18T11:23:59;102442.78;;;2.35;62.99
75891;BME280;64571;47.512;19.054;2022-12-18T11:27:04;102447.00;;;2.37;63.42
75891;BME280;64571;47.512;19.054;2022-12-18T11:30:25;102439.00;;;2.36;63.63
75891;BME280;64571;47.512;19.054;2022-12-18T11:33:28;102447.63;;;2.54;63.61
75891;BME280;64571;47.512;19.054;2022-12-18T11:36:38;102452.75;;;2.57;63.60
75891;BME280;64571;47.512;19.054;2022-12-18T11:39:50;102442.06;;;2.47;63.62
75891;BME280;64571;47.512;19.054;2022-12-18T11:43:02;102435.88;;;2.60;63.69
75891;BME280;64571;47.512;19.054;2022-12-18T11:46:33;102442.41;;;2.59;63.43
75891;BME280;64571;47.512;19.054;2022-12-18T11:49:40;102443.72;;;2.63;63.51
75891;BME280;64571;47.512;19.054;2022-12-18T11:52:43;102436.28;;;2.57;63.42
75891;BME280;64571;47.512;19.054;2022-12-18T12:16:15;102409.53;;;2.87;62.41
75891;BME280;64571;47.512;19.054;2022-12-18T12:22:39;102416.53;;;3.11;62.09
75891;BME280;64571;47.512;19.054;2022-12-18T12:25:52;102408.81;;;3.00;62.07
75891;BME280;64571;47.512;19.054;2022-12-18T12:29:24;102419.66;;;3.08;61.80
75891;BME280;64571;47.512;19.054;2022-12-18T12:39:18;102428.41;;;3.18;61.68
75891;BME280;64571;47.512;19.054;2022-12-18T12:42:44;102429.19;;;3.12;61.86
75891;BME280;64571;47.512;19.054;2022-12-18T12:46:10;102423.41;;;3.28;61.75
75891;BME280;64571;47.512;19.054;2022-12-18T12:49:26;102433.50;;;3.21;61.75
75891;BME280;64571;47.512;19.054;2022-12-18T12:55:33;102437.81;;;3.30;61.37
75891;BME280;64571;47.512;19.054;2022-12-18T12:58:46;102454.78;;;3.41;61.71
75891;BME280;64571;47.512;19.054;2022-12-18T13:08:25;102453.47;;;3.37;60.22
75891;BME280;64571;47.512;19.054;2022-12-18T13:18:38;102461.56;;;3.38;59.38
75891;BME280;64571;47.512;19.054;2022-12-18T13:21:42;102455.97;;;3.32;59.14
75891;BME280;64571;47.512;19.054;2022-12-18T13:24:54;102461.81;;;3.22;58.47
75891;BME280;64571;47.512;19.054;2022-12-18T13:28:11;102467.13;;;3.23;59.03
75891;BME280;64571;47.512;19.054;2022-12-18T13:34:43;102475.19;;;3.25;58.88
75891;BME280;64571;47.512;19.054;2022-12-18T13:37:53;102472.44;;;3.25;58.71
75891;BME280;64571;47.512;19.054;2022-12-18T13:41:00;102480.47;;;3.26;58.74
75891;BME280;64571;47.512;19.054;2022-12-18T13:44:27;102474.94;;;3.20;57.87
75891;BME280;64571;47.512;19.054;2022-12-18T13:47:33;102468.72;;;3.11;57.58
75891;BME280;64571;47.512;19.054;2022-12-18T13:50:38;102483.03;;;3.07;58.38
75891;BME280;64571;47.512;19.054;2022-12-18T13:53:54;102488.06;;;3.03;58.60
75891;BME280;64571;47.512;19.054;2022-12-18T13:56:57;102490.81;;;3.03;58.70
75891;BME280;64571;47.512;19.054;2022-12-18T14:03:26;102485.56;;;2.87;58.48
75891;BME280;64571;47.512;19.054;2022-12-18T14:06:31;102486.88;;;2.91;59.02
75891;BME280;64571;47.512;19.054;2022-12-18T14:09:40;102487.25;;;2.88;60.15
75891;BME280;64571;47.512;19.054;2022-12-18T14:12:48;102497.03;;;2.90;60.64
75891;BME280;64571;47.512;19.054;2022-12-18T14:16:06;102504.53;;;2.82;60.70
75891;BME280;64571;47.512;19.054;2022-12-18T14:19:16;102495.81;;;2.78;61.26
75891;BME280;64571;47.512;19.054;2022-12-18T14:22:21;102503.16;;;2.71;61.53
75891;BME280;64571;47.512;19.054;2022-12-18T14:25:30;102484.81;;;2.57;61.78
75891;BME280;64571;47.512;19.054;2022-12-18T14:28:43;102492.50;;;2.61;61.77
75891;BME280;64571;47.512;19.054;2022-12-18T14:31:46;102494.28;;;2.54;62.89
75891;BME280;64571;47.512;19.054;2022-12-18T14:34:53;102508.13;;;2.46;63.62
75891;BME280;64571;47.512;19.054;2022-12-18T14:41:27;102514.75;;;2.37;63.99
75891;BME280;64571;47.512;19.054;2022-12-18T14:44:30;102509.19;;;2.30;63.95
75891;BME280;64571;47.512;19.054;2022-12-18T14:47:45;102523.66;;;2.24;63.68
75891;BME280;64571;47.512;19.054;2022-12-18T14:54:19;102517.72;;;2.06;63.63
75891;BME280;64571;47.512;19.054;2022-12-18T14:57:25;102539.06;;;2.10;63.41
75891;BME280;64571;47.512;19.054;2022-12-18T15:00:30;102542.03;;;2.09;63.45
75891;BME280;64571;47.512;19.054;2022-12-18T15:03:32;102538.44;;;2.08;63.66
75891;BME280;64571;47.512;19.054;2022-12-18T15:06:37;102544.94;;;2.07;63.90
75891;BME280;64571;47.512;19.054;2022-12-18T15:09:41;102541.06;;;2.01;64.22
75891;BME280;64571;47.512;19.054;2022-12-18T15:15:52;102561.00;;;1.95;64.69
75891;BME280;64571;47.512;19.054;2022-12-18T15:18:55;102556.75;;;1.93;64.89
75891;BME280;64571;47.512;19.054;2022-12-18T15:21:57;102550.69;;;1.83;65.19
75891;BME280;64571;47.512;19.054;2022-12-18T15:25:34;102561.84;;;1.81;65.76
75891;BME280;64571;47.512;19.054;2022-12-18T15:28:44;102565.16;;;1.76;65.49
75891;BME280;64571;47.512;19.054;2022-12-18T15:32:04;102571.56;;;1.84;65.74
75891;BME280;64571;47.512;19.054;2022-12-18T15:38:13;102580.00;;;1.82;66.10
75891;BME280;64571;47.512;19.054;2022-12-18T15:41:17;102593.91;;;1.81;66.14
75891;BME280;64571;47.512;19.054;2022-12-18T15:44:26;102592.28;;;1.71;66.31
75891;BME280;64571;47.512;19.054;2022-12-18T15:47:28;102595.09;;;1.78;66.59
75891;BME280;64571;47.512;19.054;2022-12-18T15:50:31;102605.78;;;1.73;66.25
75891;BME280;64571;47.512;19.054;2022-12-18T15:53:34;102605.47;;;1.68;65.90
75891;BME280;64571;47.512;19.054;2022-12-18T15:56:37;102618.69;;;1.64;66.11
75891;BME280;64571;47.512;19.054;2022-12-18T15:59:59;102618.19;;;1.61;66.34
75891;BME280;64571;47.512;19.054;2022-12-18T16:03:03;102615.47;;;1.61;66.59
75891;BME280;64571;47.512;19.054;2022-12-18T16:06:08;102623.19;;;1.57;66.76
75891;BME280;64571;47.512;19.054;2022-12-18T16:09:11;102609.37;;;1.50;66.82
75891;BME280;64571;47.512;19.054;2022-12-18T16:12:21;102631.97;;;1.52;66.72
75891;BME280;64571;47.512;19.054;2022-12-18T16:15:23;102629.22;;;1.52;66.71
75891;BME280;64571;47.512;19.054;2022-12-18T16:18:26;102615.47;;;1.38;67.10
75891;BME280;64571;47.512;19.054;2022-12-18T16:21:28;102636.09;;;1.48;67.43
75891;BME280;64571;47.512;19.054;2022-12-18T16:24:35;102625.69;;;1.44;67.33
75891;BME280;64571;47.512;19.054;2022-12-18T16:27:38;102643.47;;;1.48;67.22
75891;BME280;64571;47.512;19.054;2022-12-18T16:30:41;102652.06;;;1.45;67.36
75891;BME280;64571;47.512;19.054;2022-12-18T16:33:44;102650.22;;;1.37;67.00
75891;BME280;64571;47.512;19.054;2022-12-18T16:36:48;102658.75;;;1.42;67.62
75891;BME280;64571;47.512;19.054;2022-12-18T16:39:50;102643.59;;;1.32;67.38
75891;BME280;64571;47.512;19.054;2022-12-18T16:42:53;102640.47;;;1.35;67.77
75891;BME280;64571;47.512;19.054;2022-12-18T16:45:58;102657.59;;;1.37;67.85
75891;BME280;64571;47.512;19.054;2022-12-18T16:49:01;102664.28;;;1.34;68.23
75891;BME280;64571;47.512;19.054;2022-12-18T16:52:04;102664.81;;;1.30;68.71
75891;BME280;64571;47.512;19.054;2022-12-18T16:55:07;102674.59;;;1.32;70.41
75891;BME280;64571;47.512;19.054;2022-12-18T16:58:10;102681.44;;;1.28;71.31
75891;BME280;64571;47.512;19.054;2022-12-18T17:01:12;102663.56;;;1.17;71.42
75891;BME280;64571;47.512;19.054;2022-12-18T17:04:15;102678.22;;;1.24;71.73
75891;BME280;64571;47.512;19.054;2022-12-18T17:07:18;102672.72;;;1.24;71.33
75891;BME280;64571;47.512;19.054;2022-12-18T17:10:20;102644.91;;;1.13;71.88
75891;BME280;64571;47.512;19.054;2022-12-18T17:13:25;102656.19;;;1.18;72.74
75891;BME280;64571;47.512;19.054;2022-12-18T17:16:28;102652.97;;;1.06;73.58
75891;BME280;64571;47.512;19.054;2022-12-18T17:19:32;102662.62;;;0.94;74.58
75891;BME280;64571;47.512;19.054;2022-12-18T17:22:34;102661.78;;;0.93;75.15
75891;BME280;64571;47.512;19.054;2022-12-18T17:25:40;102645.88;;;0.89;75.20
75891;BME280;64571;47.512;19.054;2022-12-18T17:28:42;102654.25;;;0.95;75.84
75891;BME280;64571;47.512;19.054;2022-12-18T17:31:46;102655.44;;;0.93;76.18
75891;BME280;64571;47.512;19.054;2022-12-18T17:34:48;102656.28;;;0.93;75.71
75891;BME280;64571;47.512;19.054;2022-12-18T17:37:51;102665.72;;;0.91;75.62
75891;BME280;64571;47.512;19.054;2022-12-18T17:40:54;102661.25;;;0.90;75.83
75891;BME280;64571;47.512;19.054;2022-12-18T17:44:04;102651.38;;;0.81;75.64